Time;durP1;ratioP1;P1;durP2;ratioP2;P2;SDS_P1;SDS_P2;PMS_P1;PMS_P2;Temp;Humidity;BMP_temperature;BMP_pressure;BME280_temperature;BME280_humidity;BME280_pressure;Samples;Min_cycle;Max_cycle;Signal;HPM_P1;HPM_P2
2020/12/04 00:00:54;;;;;;;1999.90;999.90;;;;;;;-3.05;80.75;102236.30;1792794;79;21538;-70
2020/12/04 00:03:22;;;;;;;1999.90;999.90;;;;;;;-3.09;79.89;102235.82;1786133;79;21534;-64
2020/12/04 00:05:49;;;;;;;1999.90;999.90;;;;;;;-3.09;80.09;102237.17;1794139;79;21123;-63
2020/12/04 00:08:17;;;;;;;1999.90;999.90;;;;;;;-3.07;80.34;102239.70;1802721;78;21079;-71
2020/12/04 00:10:45;;;;;;;1999.90;999.90;;;;;;;-3.10;80.03;102242.26;1781145;78;21115;-70
2020/12/04 00:13:13;;;;;;;1999.90;999.90;;;;;;;-3.10;80.13;102243.61;1802754;78;21569;-63
2020/12/04 00:15:41;;;;;;;1999.90;999.90;;;;;;;-3.11;79.94;102244.64;1803143;78;22306;-62
2020/12/04 00:18:09;;;;;;;1999.90;999.90;;;;;;;-3.13;80.25;102239.91;1806309;78;20999;-62
2020/12/04 00:20:37;;;;;;;1999.90;999.90;;;;;;;-3.13;80.49;102240.42;1813307;78;21104;-70
2020/12/04 00:23:05;;;;;;;1999.90;999.90;;;;;;;-3.15;80.17;102244.66;1802972;78;21071;-62
2020/12/04 00:25:33;;;;;;;1999.90;999.90;;;;;;;-3.15;80.37;102246.52;1805018;78;21091;-62
2020/12/04 00:28:03;;;;;;;1999.90;999.90;;;;;;;-3.17;80.53;102244.50;1801737;78;21365;-70
2020/12/04 00:30:31;;;;;;;1999.90;999.90;;;;;;;-3.17;80.94;102240.44;1805498;78;21114;-62
2020/12/04 00:32:58;;;;;;;1999.90;999.90;;;;;;;-3.19;80.66;102251.45;1804437;78;21118;-63
2020/12/04 00:35:26;;;;;;;1999.90;999.90;;;;;;;-3.18;80.79;102252.29;1804684;78;21153;-62
2020/12/04 00:37:54;;;;;;;1999.90;999.90;;;;;;;-3.18;80.71;102250.94;1810723;78;21075;-70
2020/12/04 00:40:22;;;;;;;1999.90;999.90;;;;;;;-3.20;81.00;102240.80;1805957;78;21191;-70
2020/12/04 00:42:49;;;;;;;1999.90;999.90;;;;;;;-3.21;80.78;102247.23;1805813;78;21110;-62
2020/12/04 00:45:18;;;;;;;1999.90;999.90;;;;;;;-3.26;80.83;102243.70;1800865;78;21100;-62
2020/12/04 00:47:46;;;;;;;1999.90;999.90;;;;;;;-3.26;80.91;102246.41;1807343;78;21134;-71
2020/12/04 00:50:15;;;;;;;1999.90;999.90;;;;;;;-3.26;80.99;102247.76;1803285;77;21119;-62
2020/12/04 00:52:43;;;;;;;1999.90;999.90;;;;;;;-3.27;81.32;102247.42;1805349;78;22261;-62
2020/12/04 00:55:11;;;;;;;1999.90;999.90;;;;;;;-3.33;80.68;102250.33;1782538;78;21557;-71
2020/12/04 00:57:39;;;;;;;1999.90;999.90;;;;;;;-3.37;80.78;102247.64;1813161;78;20961;-70
2020/12/04 01:00:06;;;;;;;1999.90;999.90;;;;;;;-3.41;80.91;102243.59;1803008;78;21008;-62
2020/12/04 01:02:35;;;;;;;1999.90;999.90;;;;;;;-3.43;80.99;102238.02;1811059;78;21613;-62
2020/12/04 01:05:03;;;;;;;1999.90;999.90;;;;;;;-3.46;81.04;102248.69;1807757;78;21696;-63
2020/12/04 01:07:31;;;;;;;1999.90;999.90;;;;;;;-3.48;80.90;102245.31;1799204;78;21127;-70
2020/12/04 01:09:59;;;;;;;1999.90;999.90;;;;;;;-3.52;80.79;102249.39;1802537;78;21082;-62
2020/12/04 01:12:26;;;;;;;1999.90;999.90;;;;;;;-3.56;81.00;102250.76;1807016;78;21083;-63
2020/12/04 01:14:54;;;;;;;1999.90;999.90;;;;;;;-3.57;81.09;102252.62;1802966;78;21522;-62
2020/12/04 01:17:22;;;;;;;1999.90;999.90;;;;;;;-3.54;81.40;102258.70;1804190;78;21328;-62
2020/12/04 01:19:49;;;;;;;1999.90;999.90;;;;;;;-3.53;81.39;102257.17;1809835;78;21107;-62
2020/12/04 01:22:17;;;;;;;1999.90;999.90;;;;;;;-3.53;81.45;102257.69;1806554;78;21236;-71
2020/12/04 01:24:45;;;;;;;1999.90;999.90;;;;;;;-3.54;81.65;102258.20;1801421;78;21141;-70
2020/12/04 01:27:13;;;;;;;1999.90;999.90;;;;;;;-3.58;81.11;102259.05;1807624;78;21098;-71
2020/12/04 01:29:41;;;;;;;1999.90;999.90;;;;;;;-3.62;80.97;102255.01;1775178;78;21489;-62
2020/12/04 01:32:09;;;;;;;1999.90;999.90;;;;;;;-3.65;81.28;102254.52;1810355;78;21557;-71
2020/12/04 01:34:37;;;;;;;1999.90;999.90;;;;;;;-3.66;81.62;102257.73;1807332;78;21514;-62
2020/12/04 01:37:05;;;;;;;1999.90;999.90;;;;;;;-3.65;81.90;102255.36;1804109;78;21114;-70
2020/12/04 01:39:32;;;;;;;1999.90;999.90;;;;;;;-3.65;82.04;102258.57;1804038;78;21083;-70
2020/12/04 01:42:00;;;;;;;1999.90;999.90;;;;;;;-3.65;82.00;102254.52;1813494;78;21269;-70
2020/12/04 01:44:28;;;;;;;1999.90;999.90;;;;;;;-3.64;82.17;102252.14;1800223;78;21106;-62
2020/12/04 01:46:56;;;;;;;1999.90;999.90;;;;;;;-3.65;82.01;102243.17;1809224;78;21130;-70
2020/12/04 01:49:24;;;;;;;1999.90;999.90;;;;;;;-3.64;82.31;102246.73;1800323;78;21548;-62
2020/12/04 01:51:54;;;;;;;1999.90;999.90;;;;;;;-3.62;82.29;102248.75;1807693;78;21565;-70
2020/12/04 01:54:21;;;;;;;1999.90;999.90;;;;;;;-3.63;82.55;102251.13;1800575;78;21565;-70
2020/12/04 01:56:49;;;;;;;1999.90;999.90;;;;;;;-3.65;82.53;102248.59;1806222;78;21034;-70
2020/12/04 01:59:17;;;;;;;1999.90;999.90;;;;;;;-3.68;82.24;102248.94;1800928;78;20937;-70
2020/12/04 02:01:45;;;;;;;1999.90;999.90;;;;;;;-3.69;82.41;102257.23;1807778;78;21114;-62
2020/12/04 02:04:13;;;;;;;1999.90;999.90;;;;;;;-3.69;82.66;102255.37;1808393;78;21079;-71
2020/12/04 02:06:45;;;;;;;1999.90;999.90;;;;;;;-3.69;82.74;102257.23;1775020;78;21378;-71
2020/12/04 02:09:18;;;;;;;1999.90;999.90;;;;;;;-3.70;82.83;102256.39;1801615;78;21094;-65
2020/12/04 02:11:48;;;;;;;1999.90;999.90;;;;;;;-3.70;82.69;102262.30;1805363;78;21847;-70
2020/12/04 02:14:16;;;;;;;1999.90;999.90;;;;;;;-3.74;82.73;102265.86;1813149;78;21496;-62
2020/12/04 02:16:45;;;;;;;1999.90;999.90;;;;;;;-3.78;82.44;102256.41;1809692;78;21099;-70
2020/12/04 02:19:13;;;;;;;1999.90;999.90;;;;;;;-3.81;82.83;102258.11;1802510;78;21388;-65
2020/12/04 02:21:42;;;;;;;1999.90;999.90;;;;;;;-3.82;83.10;102259.12;1805187;78;21590;-70
2020/12/04 02:24:10;;;;;;;1999.90;999.90;;;;;;;-3.82;82.96;102260.48;1800679;78;21102;-71
2020/12/04 02:26:38;;;;;;;1999.90;999.90;;;;;;;-3.82;83.22;102258.28;1785423;78;21134;-62
2020/12/04 02:29:11;;;;;;;1999.90;999.90;;;;;;;-3.82;83.37;102256.92;1800347;78;21110;-70
2020/12/04 02:31:38;;;;;;;1999.90;999.90;;;;;;;-3.83;83.30;102254.73;1808162;78;21345;-70
2020/12/04 02:34:06;;;;;;;1999.90;999.90;;;;;;;-3.85;83.23;102253.22;1803021;78;20991;-62
2020/12/04 02:36:34;;;;;;;1999.90;999.90;;;;;;;-3.86;83.51;102259.13;1807193;78;21600;-62
2020/12/04 02:39:02;;;;;;;1999.90;999.90;;;;;;;-3.85;83.47;102259.98;1811393;78;22265;-62
2020/12/04 02:41:30;;;;;;;1999.90;999.90;;;;;;;-3.84;83.58;102256.25;1808490;78;21114;-71
2020/12/04 02:43:59;;;;;;;1999.90;999.90;;;;;;;-3.86;83.36;102253.72;1781496;78;21347;-70
2020/12/04 02:46:28;;;;;;;1999.90;999.90;;;;;;;-3.88;83.50;102251.70;1804256;77;20987;-62
2020/12/04 02:48:55;;;;;;;1999.90;999.90;;;;;;;-3.89;83.31;102256.77;1806289;78;21114;-70
2020/12/04 02:51:23;;;;;;;1999.90;999.90;;;;;;;-3.90;83.85;102250.52;1813677;78;21106;-62
2020/12/04 02:53:51;;;;;;;1999.90;999.90;;;;;;;-3.88;83.62;102256.27;1803314;78;21942;-71
2020/12/04 02:56:19;;;;;;;1999.90;999.90;;;;;;;-3.90;83.74;102252.38;1809949;78;21360;-71
2020/12/04 02:58:46;;;;;;;1999.90;999.90;;;;;;;-3.89;83.92;102252.72;1800607;78;21239;-71
2020/12/04 03:01:14;;;;;;;1999.90;999.90;;;;;;;-3.92;83.69;102250.35;1807017;78;20961;-62
2020/12/04 03:03:42;;;;;;;1999.90;999.90;;;;;;;-3.92;83.90;102249.84;1803887;78;21728;-70
2020/12/04 03:06:10;;;;;;;1999.90;999.90;;;;;;;-3.90;83.87;102260.49;1805731;78;21307;-71
2020/12/04 03:08:40;;;;;;;1999.90;999.90;;;;;;;-3.91;84.03;102249.34;1804354;78;21153;-63
2020/12/04 03:11:08;;;;;;;1999.90;999.90;;;;;;;-3.93;84.23;102241.91;1808359;78;21023;-70
2020/12/04 03:13:36;;;;;;;1999.90;999.90;;;;;;;-3.94;84.07;102249.69;1803488;78;21111;-62
2020/12/04 03:16:04;;;;;;;1999.90;999.90;;;;;;;-3.95;84.29;102247.99;1805819;78;21102;-70
2020/12/04 03:18:31;;;;;;;1999.90;999.90;;;;;;;-3.95;84.44;102247.48;1808758;78;21513;-62
2020/12/04 03:20:59;;;;;;;1999.90;999.90;;;;;;;-3.96;84.31;102247.15;1806828;78;21150;-62
2020/12/04 03:23:27;;;;;;;1999.90;999.90;;;;;;;-3.95;84.29;102248.84;1809536;78;21075;-62
2020/12/04 03:25:55;;;;;;;1999.90;999.90;;;;;;;-3.93;84.51;102250.02;1807893;78;21146;-70
2020/12/04 03:28:23;;;;;;;1999.90;999.90;;;;;;;-3.96;84.28;102243.09;1809007;78;21158;-70
2020/12/04 03:30:51;;;;;;;1999.90;999.90;;;;;;;-3.98;84.00;102249.18;1804606;78;21130;-62
2020/12/04 03:33:18;;;;;;;1999.90;999.90;;;;;;;-3.97;84.25;102244.11;1813705;78;21350;-63
2020/12/04 03:35:46;;;;;;;1999.90;999.90;;;;;;;-3.95;84.32;102245.29;1810095;78;20980;-62
2020/12/04 03:38:15;;;;;;;1999.90;999.90;;;;;;;-3.97;84.02;102250.02;1803745;78;21118;-70
2020/12/04 03:40:44;;;;;;;1999.90;999.90;;;;;;;-3.98;84.36;102242.92;1806359;78;21138;-70
2020/12/04 03:43:12;;;;;;;1999.90;999.90;;;;;;;-4.02;84.26;102243.78;1811115;78;21086;-70
2020/12/04 03:45:40;;;;;;;1999.90;999.90;;;;;;;-4.00;84.57;102244.96;1805828;78;21364;-62
2020/12/04 03:48:08;;;;;;;1999.90;999.90;;;;;;;-4.00;84.72;102244.45;1812266;78;21095;-69
2020/12/04 03:50:35;;;;;;;1999.90;999.90;;;;;;;-4.00;84.72;102245.80;1809821;78;20976;-70
2020/12/04 03:53:03;;;;;;;1999.90;999.90;;;;;;;-3.98;84.87;102251.05;1812077;78;21146;-69
2020/12/04 03:55:31;;;;;;;1999.90;999.90;;;;;;;-3.97;84.81;102246.81;1804477;78;21070;-62
2020/12/04 03:57:58;;;;;;;1999.90;999.90;;;;;;;-3.97;84.48;102251.38;1808110;78;21361;-62
2020/12/04 04:00:26;;;;;;;1999.90;999.90;;;;;;;-3.98;84.29;102245.62;1806231;78;21545;-62
2020/12/04 04:02:54;;;;;;;1999.90;999.90;;;;;;;-3.98;84.40;102248.34;1806714;78;21126;-62
2020/12/04 04:05:21;;;;;;;1999.90;999.90;;;;;;;-4.01;84.45;102249.52;1805249;78;21522;-62
2020/12/04 04:07:50;;;;;;;1999.90;999.90;;;;;;;-4.02;84.46;102249.70;1804829;78;21126;-62
2020/12/04 04:10:18;;;;;;;1999.90;999.90;;;;;;;-4.06;84.42;102254.61;1805014;78;22172;-71
2020/12/04 04:12:46;;;;;;;1999.90;999.90;;;;;;;-4.07;84.81;102257.48;1809597;78;20990;-71
2020/12/04 04:15:14;;;;;;;1999.90;999.90;;;;;;;-4.06;85.18;102255.11;1813756;78;21541;-71
2020/12/04 04:17:42;;;;;;;1999.90;999.90;;;;;;;-4.05;85.19;102262.20;1808906;78;21115;-62
2020/12/04 04:20:09;;;;;;;1999.90;999.90;;;;;;;-4.04;85.05;102263.39;1805402;78;21083;-62
2020/12/04 04:22:37;;;;;;;1999.90;999.90;;;;;;;-4.04;85.09;102259.84;1809619;78;22233;-62
2020/12/04 04:25:06;;;;;;;1999.90;999.90;;;;;;;-4.06;84.99;102257.81;1805340;78;21663;-62
2020/12/04 04:27:34;;;;;;;1999.90;999.90;;;;;;;-4.04;85.09;102262.55;1809121;78;21126;-62
2020/12/04 04:30:01;;;;;;;1999.90;999.90;;;;;;;-4.06;85.08;102265.42;1804670;78;21102;-62
2020/12/04 04:32:31;;;;;;;1999.90;999.90;;;;;;;-4.05;85.19;102254.94;1814052;78;21153;-70
2020/12/04 04:34:59;;;;;;;1999.90;999.90;;;;;;;-4.03;85.13;102258.83;1807991;78;22081;-69
2020/12/04 04:37:27;;;;;;;1999.90;999.90;;;;;;;-4.04;85.31;102255.28;1816285;78;21143;-70
2020/12/04 04:39:55;;;;;;;1999.90;999.90;;;;;;;-4.02;85.27;102255.95;1806975;78;21107;-62
2020/12/04 04:42:23;;;;;;;1999.90;999.90;;;;;;;-3.98;85.26;102257.80;1808265;78;21549;-70
2020/12/04 04:44:51;;;;;;;1999.90;999.90;;;;;;;-4.02;85.43;102254.59;1807407;78;21107;-62
2020/12/04 04:47:20;;;;;;;1999.90;999.90;;;;;;;-4.04;85.68;102247.67;1810770;78;21366;-70
2020/12/04 04:49:49;;;;;;;1999.90;999.90;;;;;;;-4.06;85.69;102254.61;1813279;78;21094;-62
2020/12/04 04:52:17;;;;;;;1999.90;999.90;;;;;;;-4.05;85.71;102264.91;1812651;78;21573;-62
2020/12/04 04:54:48;;;;;;;1999.90;999.90;;;;;;;-4.03;85.78;102261.02;1803591;78;21126;-62
2020/12/04 04:57:23;;;;;;;1999.90;999.90;;;;;;;-4.01;85.57;102261.70;1810570;78;21087;-70
2020/12/04 04:59:54;;;;;;;1999.90;999.90;;;;;;;-4.00;85.36;102262.54;1813073;78;22245;-70
2020/12/04 05:02:22;;;;;;;1999.90;999.90;;;;;;;-4.01;85.07;102255.44;1819989;78;21138;-70
2020/12/04 05:04:53;;;;;;;1999.90;999.90;;;;;;;-4.03;85.15;102255.61;1802924;78;21106;-62
2020/12/04 05:07:34;;;;;;;1999.90;999.90;;;;;;;-4.04;84.96;102263.39;1811098;78;21090;-71
2020/12/04 05:10:14;;;;;;;1999.90;999.90;;;;;;;-4.05;84.98;102267.62;1808377;78;21091;-62
2020/12/04 05:12:45;;;;;;;1999.90;999.90;;;;;;;-4.02;85.10;102272.69;1804583;78;21422;-62
2020/12/04 05:15:25;;;;;;;1999.90;999.90;;;;;;;-4.05;85.10;102282.49;1806602;78;20976;-70
2020/12/04 05:18:12;;;;;;;1999.90;999.90;;;;;;;-4.06;85.10;102284.86;1805019;78;21126;-70
2020/12/04 05:20:52;;;;;;;1999.90;999.90;;;;;;;-4.06;85.21;102285.70;1803938;78;21071;-62
2020/12/04 05:23:20;;;;;;;1999.90;999.90;;;;;;;-4.05;85.22;102298.21;1788196;78;21079;-70
2020/12/04 05:25:52;;;;;;;1999.90;999.90;;;;;;;-4.03;85.06;102289.42;1815391;78;21149;-70
2020/12/04 05:28:26;;;;;;;1999.90;999.90;;;;;;;-4.01;85.12;102296.86;1801530;78;20971;-70
2020/12/04 05:31:07;;;;;;;1999.90;999.90;;;;;;;-3.97;85.12;102297.36;1806845;78;21107;-62
2020/12/04 05:33:36;;;;;;;1999.90;999.90;;;;;;;-3.96;84.76;102303.11;1804081;78;21103;-70
2020/12/04 05:36:04;;;;;;;1999.90;999.90;;;;;;;-3.95;84.39;102307.50;1807392;78;21091;-62
2020/12/04 05:38:33;;;;;;;1999.90;999.90;;;;;;;-3.95;84.21;102312.91;1801180;78;21565;-62
2020/12/04 05:41:09;;;;;;;1999.90;999.90;;;;;;;-3.98;83.77;102311.89;1807811;78;21127;-62
2020/12/04 05:43:38;;;;;;;1999.90;999.90;;;;;;;-4.01;83.72;102314.94;1805819;78;21514;-62
2020/12/04 05:46:25;;;;;;;1999.90;999.90;;;;;;;-4.04;83.73;102316.12;1805989;78;21553;-70
2020/12/04 05:49:02;;;;;;;1999.90;999.90;;;;;;;-4.04;83.89;102313.42;1801274;78;21289;-70
2020/12/04 05:51:32;;;;;;;1999.90;999.90;;;;;;;-4.04;84.00;102322.89;1807791;78;21367;-70
2020/12/04 05:54:03;;;;;;;1999.90;999.90;;;;;;;-4.02;83.94;102325.42;1815169;78;21423;-64
2020/12/04 05:56:34;;;;;;;1999.90;999.90;;;;;;;-4.02;83.81;102328.97;1805096;78;21103;-61
2020/12/04 05:59:05;;;;;;;1999.90;999.90;;;;;;;-4.02;83.76;102325.42;1805562;78;21114;-61
2020/12/04 06:01:33;;;;;;;1999.90;999.90;;;;;;;-4.02;83.61;102331.67;1804844;78;21528;-69
2020/12/04 06:04:01;;;;;;;1999.90;999.90;;;;;;;-4.03;83.56;102334.05;1801403;78;22236;-62
2020/12/04 06:06:30;;;;;;;1999.90;999.90;;;;;;;-4.06;83.61;102345.70;1806696;78;21227;-69
2020/12/04 06:09:07;;;;;;;1999.90;999.90;;;;;;;-4.07;83.55;102342.16;1797924;78;21195;-70
2020/12/04 06:11:39;;;;;;;1999.90;999.90;;;;;;;-4.11;83.25;102340.80;1792429;79;21124;-69
2020/12/04 06:14:20;;;;;;;1999.90;999.90;;;;;;;-4.14;83.35;102338.95;1788672;79;21080;-61
2020/12/04 06:17:12;;;;;;;1999.90;999.90;;;;;;;-4.11;83.54;102339.45;1878445;75;28304;-70
2020/12/04 06:19:44;;;;;;;1999.90;999.90;;;;;;;-4.16;83.48;102336.41;1767186;80;20992;-61
2020/12/04 06:22:17;;;;;;;1999.90;999.90;;;;;;;-4.17;83.44;102338.77;1762563;80;22277;-61
2020/12/04 06:24:59;;;;;;;1999.90;999.90;;;;;;;-4.15;83.66;102344.02;1753577;80;20956;-61
2020/12/04 06:27:45;;;;;;;1999.90;999.90;;;;;;;-4.13;83.56;102339.28;1768058;80;20987;-61
2020/12/04 06:30:16;;;;;;;1999.90;999.90;;;;;;;-4.12;83.32;102351.28;1765471;80;21028;-69
2020/12/04 06:32:48;;;;;;;1999.90;999.90;;;;;;;-4.14;83.39;102345.20;1765297;80;21035;-69
2020/12/04 06:35:41;;;;;;;1999.90;999.90;;;;;;;-4.12;83.52;102337.77;1757055;80;21394;-61
2020/12/04 06:38:38;;;;;;;1999.90;999.90;;;;;;;-4.09;83.49;102337.42;1739790;80;21081;-62
2020/12/04 06:41:29;;;;;;;1999.90;999.90;;;;;;;-4.10;83.22;102336.23;1763734;80;20977;-69
2020/12/04 06:44:04;;;;;;;1999.90;999.90;;;;;;;-4.13;83.20;102334.72;1757994;80;21083;-61
2020/12/04 06:46:46;;;;;;;1999.90;999.90;;;;;;;-4.12;83.34;102336.41;1762287;80;21554;-69
2020/12/04 06:52:16;;;;;;;1999.90;999.90;;;;;;;-4.16;83.44;102330.16;1757430;80;21051;-61
2020/12/04 06:54:47;;;;;;;1999.90;999.90;;;;;;;-4.17;83.63;102334.72;1759558;80;21626;-61
2020/12/04 06:57:20;;;;;;;1999.90;999.90;;;;;;;-4.18;83.67;102338.94;1767534;80;20990;-70
2020/12/04 06:59:48;;;;;;;1999.90;999.90;;;;;;;-4.19;83.66;102341.30;1749806;80;21132;-69
2020/12/04 07:02:21;;;;;;;1999.90;999.90;;;;;;;-4.19;83.83;102338.09;1769638;80;21366;-61
2020/12/04 07:04:51;;;;;;;1999.90;999.90;;;;;;;-4.16;84.03;102332.86;1749966;80;20976;-71
2020/12/04 07:07:27;;;;;;;1999.90;999.90;;;;;;;-4.15;84.15;102331.84;1763204;80;21577;-71
2020/12/04 07:10:01;;;;;;;1999.90;999.90;;;;;;;-4.12;84.27;102343.17;1758438;80;20992;-69
2020/12/04 07:12:30;;;;;;;1999.90;999.90;;;;;;;-4.09;84.10;102346.89;1772455;80;20970;-61
2020/12/04 07:14:59;;;;;;;1999.90;999.90;;;;;;;-4.05;84.29;102346.05;1754921;80;21199;-69
2020/12/04 07:17:29;;;;;;;1999.90;999.90;;;;;;;-4.02;84.12;102349.25;1763911;80;21114;-61
2020/12/04 07:20:05;;;;;;;1999.90;999.90;;;;;;;-3.95;83.78;102348.91;1859766;76;28343;-63
2020/12/04 07:22:33;;;;;;;1999.90;999.90;;;;;;;-3.99;84.16;102342.16;1840894;77;20960;-63
2020/12/04 07:25:01;;;;;;;1999.90;999.90;;;;;;;-3.99;84.28;102345.37;1836726;77;21439;-70
2020/12/04 07:27:30;;;;;;;1999.90;999.90;;;;;;;-3.98;84.33;102344.35;1837642;77;20983;-70
2020/12/04 07:29:58;;;;;;;1999.90;999.90;;;;;;;-3.95;84.17;102354.33;1828668;77;20960;-70
2020/12/04 07:32:26;;;;;;;1999.90;999.90;;;;;;;-3.92;84.16;102348.58;1805431;78;20993;-70
2020/12/04 07:34:54;;;;;;;1999.90;999.90;;;;;;;-3.87;84.02;102358.04;1759518;80;21499;-70
2020/12/04 07:37:26;;;;;;;1999.90;999.90;;;;;;;-3.85;83.87;102359.56;1787144;79;21446;-70
2020/12/04 07:39:54;;;;;;;1999.90;999.90;;;;;;;-3.83;83.73;102356.18;1774009;79;20956;-62
2020/12/04 07:42:22;;;;;;;1999.90;999.90;;;;;;;-3.85;83.69;102352.80;1784920;79;21580;-70
2020/12/04 07:44:53;;;;;;;1999.90;999.90;;;;;;;-3.84;83.65;102357.70;1774484;79;21262;-62
2020/12/04 07:47:21;;;;;;;1999.90;999.90;;;;;;;-3.83;83.42;102357.53;1795465;79;21537;-62
2020/12/04 07:49:54;;;;;;;1999.90;999.90;;;;;;;-3.81;83.38;102352.80;1774361;79;21371;-62
2020/12/04 07:52:29;;;;;;;1999.90;999.90;;;;;;;-3.76;83.51;102353.63;1789645;79;21090;-62
2020/12/04 07:55:04;;;;;;;1999.90;999.90;;;;;;;-3.72;83.59;102355.83;1777498;79;21106;-69
2020/12/04 07:57:44;;;;;;;1999.90;999.90;;;;;;;-3.69;83.65;102354.64;1783592;79;20912;-62
2020/12/04 08:00:14;;;;;;;1999.90;999.90;;;;;;;-3.67;83.66;102364.28;1779682;79;20948;-62
2020/12/04 08:02:44;;;;;;;1999.90;999.90;;;;;;;-3.66;83.87;102363.77;1783314;79;20990;-71
2020/12/04 08:05:21;;;;;;;1999.90;999.90;;;;;;;-3.65;83.83;102369.02;1772987;79;20972;-71
2020/12/04 08:07:52;;;;;;;1999.90;999.90;;;;;;;-3.63;83.87;102364.27;1792587;79;21510;-70
2020/12/04 08:10:20;;;;;;;1999.90;999.90;;;;;;;-3.63;84.16;102360.22;1773691;79;20967;-62
2020/12/04 08:12:49;;;;;;;1999.90;999.90;;;;;;;-3.61;83.99;102364.95;1785050;79;21425;-71
2020/12/04 08:15:19;;;;;;;1999.90;999.90;;;;;;;-3.60;84.12;102362.58;1778537;79;21469;-63
2020/12/04 08:17:46;;;;;;;1999.90;999.90;;;;;;;-3.57;84.21;102357.33;1791274;79;21044;-70
2020/12/04 08:20:18;;;;;;;1999.90;999.90;;;;;;;-3.51;84.22;102363.92;1763688;79;21511;-63
2020/12/04 08:22:49;;;;;;;1999.90;999.90;;;;;;;-3.48;84.01;102350.04;1779462;80;20949;-70
2020/12/04 08:25:28;;;;;;;1999.90;999.90;;;;;;;-3.45;83.89;102357.30;1764821;78;20953;-63
2020/12/04 08:27:56;;;;;;;1999.90;999.90;;;;;;;-3.43;84.05;102354.42;1783422;79;21559;-63
2020/12/04 08:30:26;;;;;;;1999.90;999.90;;;;;;;-3.41;84.06;102351.87;1775171;80;21546;-63
2020/12/04 08:33:03;;;;;;;1999.90;999.90;;;;;;;-3.40;84.24;102352.73;1775782;80;20992;-63
2020/12/04 08:35:41;;;;;;;1999.90;999.90;;;;;;;-3.41;84.47;102345.63;1773009;80;21128;-63
2020/12/04 08:38:14;;;;;;;1999.90;999.90;;;;;;;-3.39;84.79;102343.59;1775076;80;21095;-63
2020/12/04 08:40:47;;;;;;;1999.90;999.90;;;;;;;-3.35;84.90;102348.98;1765608;80;21380;-63
2020/12/04 08:43:23;;;;;;;1999.90;999.90;;;;;;;-3.32;84.75;102353.55;1776605;80;20996;-63
2020/12/04 08:45:53;;;;;;;1999.90;999.90;;;;;;;-3.29;84.47;102345.08;1773690;80;20980;-66
2020/12/04 08:52:04;;;;;;;1999.90;999.90;;;;;;;-3.19;84.37;102340.81;1766761;78;72502;-83
2020/12/04 08:54:32;;;;;;;1999.90;999.90;;;;;;;-3.16;84.05;102336.41;1767339;77;21522;-82
2020/12/04 08:57:00;;;;;;;1999.90;999.90;;;;;;;-3.13;83.86;102337.41;1788064;79;21199;-83
2020/12/04 08:59:28;;;;;;;1999.90;999.90;;;;;;;-3.11;83.90;102339.94;1786974;80;21123;-82
2020/12/04 09:01:57;;;;;;;1999.90;999.90;;;;;;;-3.12;83.82;102336.39;1778730;80;21161;-71
2020/12/04 09:04:25;;;;;;;1999.90;999.90;;;;;;;-3.15;83.95;102340.80;1779257;80;21130;-84
2020/12/04 09:06:53;;;;;;;1999.90;999.90;;;;;;;-3.17;84.25;102342.84;1767182;80;22221;-84
2020/12/04 09:09:21;;;;;;;1999.90;999.90;;;;;;;-3.14;84.32;102343.84;1763501;80;21007;-83
2020/12/04 09:11:50;;;;;;;1999.90;999.90;;;;;;;-3.13;84.36;102342.83;1764613;80;21134;-84
2020/12/04 09:14:18;;;;;;;1999.90;999.90;;;;;;;-3.11;84.64;102330.46;1734200;81;20992;-80
2020/12/04 09:16:47;;;;;;;1999.90;999.90;;;;;;;-3.09;84.80;102337.90;1744162;80;21609;-84
2020/12/04 09:19:15;;;;;;;1999.90;999.90;;;;;;;-3.05;85.33;102330.60;1756207;80;21386;-84
2020/12/04 09:21:43;;;;;;;1999.90;999.90;;;;;;;-3.01;85.47;102334.65;1761108;80;21191;-80
2020/12/04 09:24:11;;;;;;;1999.90;999.90;;;;;;;-2.97;85.28;102323.80;1762077;80;21166;-81
2020/12/04 09:26:39;;;;;;;1999.90;999.90;;;;;;;-2.90;85.23;102331.22;1768047;80;21170;-81
2020/12/04 09:29:07;;;;;;;1999.90;999.90;;;;;;;-2.86;85.23;102332.55;1768055;80;21059;-83
2020/12/04 09:31:34;;;;;;;1999.90;999.90;;;;;;;-2.85;85.26;102337.79;1768453;80;21374;-83
2020/12/04 09:34:02;;;;;;;1999.90;999.90;;;;;;;-2.80;85.53;102334.55;1763633;80;21106;-79
2020/12/04 09:36:30;;;;;;;1999.90;999.90;;;;;;;-2.76;85.43;102335.88;1767163;80;20975;-83
2020/12/04 09:38:58;;;;;;;1999.90;999.90;;;;;;;-2.74;85.34;102334.69;1763375;80;21510;-80
2020/12/04 09:41:26;;;;;;;1999.90;999.90;;;;;;;-2.73;85.32;102333.66;1766675;80;21173;-82
2020/12/04 09:43:55;;;;;;;1999.90;999.90;;;;;;;-2.71;85.38;102346.52;1786994;80;21605;-82
2020/12/04 09:46:23;;;;;;;1999.90;999.90;;;;;;;-2.74;85.06;102341.97;1773229;80;21178;-78
2020/12/04 09:48:50;;;;;;;1999.90;999.90;;;;;;;-2.78;85.62;102342.84;1762370;80;21031;-84
2020/12/04 09:51:18;;;;;;;1999.90;999.90;;;;;;;-2.81;85.73;102347.26;1768712;80;21182;-81
2020/12/04 09:53:46;;;;;;;1999.90;999.90;;;;;;;-2.82;85.82;102337.95;1787900;80;21570;-82
2020/12/04 09:56:14;;;;;;;1999.90;999.90;;;;;;;-2.80;86.02;102340.81;1779329;80;21380;-82
2020/12/04 09:58:42;;;;;;;1999.90;999.90;;;;;;;-2.78;86.20;102338.77;1778366;80;21667;-85
2020/12/04 10:01:13;;;;;;;1999.90;999.90;;;;;;;-2.78;86.00;102341.99;1778630;80;21058;-85
2020/12/04 10:03:43;;;;;;;1999.90;999.90;;;;;;;-2.81;85.87;102340.99;1782492;80;21135;-82
2020/12/04 10:06:10;;;;;;;1999.90;999.90;;;;;;;-2.77;86.19;102332.33;1774994;80;21204;-83
2020/12/04 10:08:38;;;;;;;1999.90;999.90;;;;;;;-2.74;85.84;102337.39;1760799;80;21439;-83
2020/12/04 10:11:08;;;;;;;1999.90;999.90;;;;;;;-2.73;85.92;102338.23;1779522;80;21167;-84
2020/12/04 10:13:36;;;;;;;1999.90;999.90;;;;;;;-2.73;85.89;102342.30;1780140;80;21025;-83
2020/12/04 10:16:06;;;;;;;1999.90;999.90;;;;;;;-2.70;86.43;102341.95;1771749;80;21198;-85
2020/12/04 10:18:34;;;;;;;1999.90;999.90;;;;;;;-2.69;86.62;102336.86;1775647;79;21242;-84
2020/12/04 10:25:05;;;;;;;1999.90;999.90;;;;;;;-2.71;86.92;102345.68;1760906;76;22896;-83
2020/12/04 10:27:33;;;;;;;1999.90;999.90;;;;;;;-2.72;87.17;102343.99;1747333;80;21007;-80
2020/12/04 10:30:01;;;;;;;1999.90;999.90;;;;;;;-2.71;87.12;102342.45;1738671;80;21887;-83
2020/12/04 10:32:29;;;;;;;1999.90;999.90;;;;;;;-2.68;87.22;102340.75;1755777;80;21159;-83
2020/12/04 10:34:58;;;;;;;1999.90;999.90;;;;;;;-2.65;87.08;102332.77;1744222;81;21374;-78
2020/12/04 10:37:25;;;;;;;1999.90;999.90;;;;;;;-2.61;87.14;102330.04;1758172;80;21063;-82
2020/12/04 10:39:53;;;;;;;1999.90;999.90;;;;;;;-2.57;87.21;102331.87;1742466;81;20937;-85
2020/12/04 10:42:21;;;;;;;1999.90;999.90;;;;;;;-2.60;87.65;102332.57;1745065;80;21672;-84
2020/12/04 10:44:49;;;;;;;1999.90;999.90;;;;;;;-2.60;87.87;102335.79;1744857;81;21123;-85
2020/12/04 10:47:17;;;;;;;1999.90;999.90;;;;;;;-2.58;87.93;102337.81;1749402;80;21978;-83
2020/12/04 10:49:45;;;;;;;1999.90;999.90;;;;;;;-2.57;87.85;102336.79;1741529;81;21178;-83
2020/12/04 10:52:14;;;;;;;1999.90;999.90;;;;;;;-2.54;87.85;102347.27;1747004;80;20955;-83
2020/12/04 10:54:42;;;;;;;1999.90;999.90;;;;;;;-2.51;87.99;102346.07;1743870;81;21186;-85
2020/12/04 10:57:10;;;;;;;1999.90;999.90;;;;;;;-2.54;88.35;102342.36;1757935;80;21103;-81
2020/12/04 10:59:39;;;;;;;1999.90;999.90;;;;;;;-2.57;88.75;102342.72;1751287;80;22688;-85
2020/12/04 11:02:17;;;;;;;1999.90;999.90;;;;;;;-2.57;88.94;102344.08;1746872;80;20965;-83
2020/12/04 11:07:25;;;;;;;1999.90;999.90;;;;;;;-2.52;89.20;102343.88;1746562;80;21193;-79
2020/12/04 11:09:54;;;;;;;1999.90;999.90;;;;;;;-2.48;89.30;102340.30;1740349;81;21209;-80
2020/12/04 11:12:22;;;;;;;1999.90;999.90;;;;;;;-2.47;89.40;102334.69;1748301;80;21385;-81